Time;durP1;ratioP1;P1;durP2;ratioP2;P2;SDS_P1;SDS_P2;PMS_P1;PMS_P2;Temp;Humidity;BMP_temperature;BMP_pressure;BME280_temperature;BME280_humidity;BME280_pressure;Samples;Min_cycle;Max_cycle;Signal;HPM_P1;HPM_P2
2021/08/12 00:03:58;;;;;;;40.13;22.45;;;30.10;33.40;;;;;;21124929;27;82086;-61
2021/08/12 00:13:59;;;;;;;26.00;10.32;;;30.00;34.10;;;;;;21111540;27;82769;-61
2021/08/12 00:24:02;;;;;;;38.28;20.80;;;30.00;33.90;;;;;;21112195;27;83237;-61
2021/08/12 00:34:05;;;;;;;44.28;19.20;;;30.00;35.60;;;;;;21111835;27;83183;-61
2021/08/12 00:44:07;;;;;;;20.23;9.52;;;29.80;36.50;;;;;;21094675;27;83347;-61
2021/08/12 00:54:09;;;;;;;20.40;4.93;;;29.70;36.80;;;;;;21120779;27;83355;-62
2021/08/12 01:04:13;;;;;;;22.08;8.73;;;29.40;37.00;;;;;;21139765;27;81856;-61
2021/08/12 01:14:38;;;;;;;18.98;4.07;;;29.20;38.50;;;;;;21138391;27;80740;-61
2021/08/12 01:24:45;;;;;;;24.27;3.45;;;29.20;37.40;;;;;;21132684;27;81183;-61
2021/08/12 01:35:01;;;;;;;21.67;4.63;;;28.90;37.80;;;;;;21134248;27;82029;-61
2021/08/12 01:45:04;;;;;;;20.45;3.20;;;28.80;40.00;;;;;;21134930;27;81850;-61
2021/08/12 01:55:09;;;;;;;18.15;3.42;;;28.60;39.50;;;;;;21151324;27;80441;-61
2021/08/12 02:05:21;;;;;;;17.20;3.53;;;28.50;40.30;;;;;;21134912;27;81250;-61
2021/08/12 02:15:28;;;;;;;19.13;5.38;;;28.30;40.30;;;;;;21133333;27;81842;-61
2021/08/12 02:25:57;;;;;;;21.33;4.40;;;28.20;40.50;;;;;;21149518;27;81296;-60
2021/08/12 02:36:00;;;;;;;22.88;4.97;;;28.10;40.50;;;;;;21129950;27;81916;-61
2021/08/12 02:46:03;;;;;;;16.10;3.67;;;27.90;40.90;;;;;;21148356;27;79864;-61
2021/08/12 02:56:10;;;;;;;20.20;3.65;;;27.90;40.70;;;;;;21130331;27;82351;-61
2021/08/12 03:06:17;;;;;;;18.00;4.38;;;27.90;40.80;;;;;;21128939;27;81875;-61
2021/08/12 03:16:18;;;;;;;19.77;3.78;;;27.80;40.90;;;;;;21127332;27;81707;-61
2021/08/12 03:26:23;;;;;;;23.67;3.65;;;27.70;41.70;;;;;;21145095;27;82002;-61
2021/08/12 03:36:44;;;;;;;22.63;4.43;;;27.60;42.40;;;;;;21146269;27;83166;-61
2021/08/12 03:47:02;;;;;;;25.20;4.65;;;27.40;43.60;;;;;;21126198;27;80714;-61
2021/08/12 03:57:15;;;;;;;20.80;3.85;;;27.10;44.40;;;;;;21143205;27;82111;-62
2021/08/12 04:07:19;;;;;;;16.30;3.38;;;27.00;44.30;;;;;;21142157;27;80510;-60
2021/08/12 04:17:31;;;;;;;21.02;3.67;;;26.80;44.80;;;;;;21141024;27;80765;-62
2021/08/12 04:27:37;;;;;;;19.50;3.53;;;26.70;45.40;;;;;;21122654;27;81820;-61
2021/08/12 04:37:44;;;;;;;21.38;3.70;;;26.70;45.20;;;;;;21121849;27;81125;-63
2021/08/12 04:48:03;;;;;;;23.80;3.95;;;26.70;45.50;;;;;;21123254;27;80808;-62
2021/08/12 04:58:06;;;;;;;17.02;3.47;;;26.40;46.60;;;;;;21120518;27;80481;-63
2021/08/12 05:08:09;;;;;;;22.65;3.60;;;26.40;46.20;;;;;;21138436;27;79961;-62
2021/08/12 05:18:11;;;;;;;26.48;4.50;;;26.40;45.80;;;;;;21120293;27;81207;-63
2021/08/12 05:28:15;;;;;;;22.10;4.10;;;26.30;46.40;;;;;;21118570;27;80215;-61
2021/08/12 05:38:17;;;;;;;14.63;3.85;;;26.10;47.30;;;;;;21119088;27;81929;-63
2021/08/12 05:48:20;;;;;;;21.95;3.55;;;26.10;47.20;;;;;;21118147;27;81820;-62
2021/08/12 05:58:23;;;;;;;23.15;3.95;;;26.10;46.70;;;;;;21117355;27;80656;-62
2021/08/12 06:08:25;;;;;;;16.67;3.33;;;26.20;46.30;;;;;;21128059;27;81077;-63
2021/08/12 06:18:28;;;;;;;17.15;3.45;;;26.20;46.40;;;;;;21150564;27;81741;-63
2021/08/12 06:28:29;;;;;;;15.80;3.42;;;26.40;46.50;;;;;;21131317;27;80120;-62
2021/08/12 06:38:35;;;;;;;21.25;3.95;;;26.50;45.80;;;;;;21131201;27;81812;-62
2021/08/12 06:48:40;;;;;;;30.60;4.47;;;26.80;45.80;;;;;;21130449;27;81016;-62
2021/08/12 06:58:42;;;;;;;21.02;3.90;;;27.00;45.50;;;;;;21148096;27;81026;-62
2021/08/12 07:08:46;;;;;;;16.80;3.40;;;27.20;44.50;;;;;;21129686;27;79881;-62
2021/08/12 07:18:49;;;;;;;16.15;4.32;;;27.50;44.10;;;;;;21129129;27;80615;-62
2021/08/12 07:28:51;;;;;;;29.67;5.07;;;27.70;43.60;;;;;;21128418;27;81952;-62
2021/08/12 07:38:54;;;;;;;26.70;5.88;;;28.00;43.20;;;;;;21126653;27;80953;-62
2021/08/12 07:48:57;;;;;;;34.88;5.30;;;28.20;42.40;;;;;;21126304;27;80982;-62
2021/08/12 07:59:00;;;;;;;21.63;3.80;;;28.40;41.80;;;;;;21143655;27;81910;-61
2021/08/12 08:09:05;;;;;;;25.77;5.18;;;28.60;41.30;;;;;;21124711;27;81088;-61
2021/08/12 08:19:09;;;;;;;43.75;5.85;;;28.90;41.00;;;;;;21125051;27;81918;-62
2021/08/12 08:29:12;;;;;;;30.88;6.35;;;29.10;40.70;;;;;;21122599;27;80093;-62
2021/08/12 08:39:14;;;;;;;24.70;4.15;;;29.40;39.70;;;;;;21122469;27;80806;-62
2021/08/12 08:49:22;;;;;;;32.17;5.53;;;29.60;39.50;;;;;;21140175;27;81366;-62
2021/08/12 08:59:25;;;;;;;21.35;4.43;;;29.80;39.50;;;;;;21120381;27;80802;-62
2021/08/12 09:09:26;;;;;;;30.27;4.68;;;30.20;38.80;;;;;;21139115;27;80930;-62
2021/08/12 09:19:28;;;;;;;36.88;4.85;;;30.30;38.40;;;;;;21138628;27;81332;-62
2021/08/12 09:29:32;;;;;;;30.33;5.50;;;30.60;38.00;;;;;;21119616;27;80856;-62
2021/08/12 09:39:37;;;;;;;29.92;5.05;;;31.00;37.70;;;;;;21123781;27;81832;-61
2021/08/12 09:49:42;;;;;;;24.48;4.75;;;31.50;36.70;;;;;;21135392;27;79958;-61
2021/08/12 09:59:48;;;;;;;35.40;6.53;;;31.90;36.60;;;;;;21133386;27;80460;-61
2021/08/12 10:09:50;;;;;;;24.80;5.47;;;32.70;35.30;;;;;;21151107;27;80734;-63
2021/08/12 10:19:53;;;;;;;37.35;5.68;;;33.40;34.50;;;;;;21152313;27;81069;-62
2021/08/12 10:29:55;;;;;;;34.08;5.72;;;34.50;32.00;;;;;;21133841;27;81996;-62
2021/08/12 10:39:59;;;;;;;29.48;4.80;;;35.50;31.20;;;;;;21131668;27;81130;-61
2021/08/12 10:50:38;;;;;;;23.50;5.38;;;37.00;28.20;;;;;;21132440;27;80646;-62
2021/08/12 11:01:07;;;;;;;30.52;6.18;;;38.40;27.10;;;;;;21030373;27;82152;-60
2021/08/12 11:11:09;;;;;;;24.27;5.67;;;40.10;24.70;;;;;;21143419;27;80245;-62
2021/08/12 11:21:29;;;;;;;24.80;5.65;;;42.30;22.50;;;;;;21128582;27;81812;-62
2021/08/12 11:31:31;;;;;;;26.13;5.88;;;44.40;20.60;;;;;;21127414;27;80751;-61
2021/08/12 11:41:36;;;;;;;21.42;5.80;;;47.10;18.00;;;;;;21126250;27;80629;-61
2021/08/12 11:51:40;;;;;;;30.25;5.28;;;48.90;17.30;;;;;;21126650;27;81980;-61
2021/08/12 12:01:42;;;;;;;16.50;4.85;;;49.80;16.60;;;;;;21142647;27;81015;-60
2021/08/12 12:12:05;;;;;;;15.02;4.95;;;51.50;15.60;;;;;;21124755;27;80755;-61
2021/08/12 12:22:13;;;;;;;21.98;6.15;;;51.80;15.10;;;;;;21142241;27;80847;-61
2021/08/12 12:32:17;;;;;;;21.55;5.43;;;53.30;14.50;;;;;;21124713;27;80730;-61
2021/08/12 12:42:20;;;;;;;21.02;5.55;;;54.30;13.70;;;;;;21140856;27;80716;-61
2021/08/12 12:52:22;;;;;;;24.27;6.85;;;54.60;13.70;;;;;;21122515;27;80378;-61
2021/08/12 13:02:24;;;;;;;22.38;5.43;;;55.40;13.30;;;;;;21139459;27;81718;-61
2021/08/12 13:12:31;;;;;;;18.52;6.60;;;54.80;12.50;;;;;;21125796;27;81766;-63
2021/08/12 13:22:42;;;;;;;23.85;5.82;;;54.90;12.90;;;;;;21136942;27;81771;-61
2021/08/12 13:32:46;;;;;;;20.48;6.00;;;53.90;12.60;;;;;;21155299;27;80845;-61
2021/08/12 13:42:51;;;;;;;18.55;5.93;;;54.50;12.00;;;;;;21135056;27;80770;-60
2021/08/12 13:52:53;;;;;;;10.88;5.75;;;53.00;12.00;;;;;;21151337;27;80729;-61
2021/08/12 14:02:55;;;;;;;14.20;5.93;;;54.30;10.80;;;;;;21116294;27;80324;-61
2021/08/12 14:12:58;;;;;;;13.90;5.65;;;51.50;10.80;;;;;;21152808;27;81741;-62
2021/08/12 14:23:00;;;;;;;12.30;5.22;;;53.90;10.50;;;;;;21131709;27;80736;-60
2021/08/12 14:33:03;;;;;;;15.23;5.60;;;55.50;10.00;;;;;;21130457;27;80640;-61
2021/08/12 14:43:05;;;;;;;8.67;6.23;;;56.00;9.90;;;;;;21130862;27;80069;-61
2021/08/12 14:53:07;;;;;;;16.57;6.67;;;57.60;10.10;;;;;;21130950;27;81091;-61
2021/08/12 15:03:09;;;;;;;16.60;6.67;;;55.50;10.50;;;;;;21148259;27;79924;-60
2021/08/12 15:13:11;;;;;;;13.73;4.93;;;52.30;10.40;;;;;;21128645;27;80263;-61
2021/08/12 15:23:13;;;;;;;13.75;4.63;;;47.60;11.90;;;;;;21145628;27;80199;-61
2021/08/12 15:33:15;;;;;;;11.48;4.30;;;44.50;12.10;;;;;;21144774;27;80739;-62
2021/08/12 15:43:17;;;;;;;11.93;4.97;;;42.70;14.20;;;;;;21142518;27;80593;-60
2021/08/12 15:53:19;;;;;;;9.02;3.35;;;42.80;12.90;;;;;;21125617;27;81834;-61
2021/08/12 16:03:21;;;;;;;13.18;4.00;;;41.60;13.20;;;;;;21123436;27;80592;-61
2021/08/12 16:13:25;;;;;;;12.63;3.67;;;41.20;13.80;;;;;;21142204;27;80048;-60
2021/08/12 16:23:27;;;;;;;6.70;3.67;;;44.40;12.10;;;;;;21123360;27;81991;-60
2021/08/12 16:33:30;;;;;;;11.60;3.90;;;44.30;12.40;;;;;;21123508;27;80862;-62
2021/08/12 16:43:32;;;;;;;9.05;3.17;;;42.40;13.20;;;;;;21121825;27;82030;-60
2021/08/12 16:53:34;;;;;;;7.82;3.30;;;40.80;12.00;;;;;;21121628;27;81737;-61
2021/08/12 17:03:35;;;;;;;8.20;3.20;;;41.40;12.80;;;;;;21139130;27;81030;-61
2021/08/12 17:13:38;;;;;;;8.43;3.25;;;43.30;10.90;;;;;;21122602;27;82060;-72
2021/08/12 17:23:40;;;;;;;6.95;3.50;;;41.10;11.60;;;;;;21119270;27;82157;-74
2021/08/12 17:33:43;;;;;;;9.90;3.88;;;39.50;12.80;;;;;;21118493;27;81846;-72
2021/08/12 17:43:44;;;;;;;9.52;3.45;;;38.90;12.80;;;;;;21118007;27;81930;-70
2021/08/12 17:53:46;;;;;;;16.27;5.20;;;38.80;13.00;;;;;;21136969;27;80738;-71
2021/08/12 18:03:48;;;;;;;9.80;3.60;;;40.40;12.90;;;;;;21113566;27;81930;-73
2021/08/12 18:13:49;;;;;;;10.95;3.83;;;40.50;12.70;;;;;;21152236;27;82287;-77
2021/08/12 18:23:53;;;;;;;7.93;3.30;;;40.50;12.40;;;;;;21150184;27;81225;-70
2021/08/12 18:33:55;;;;;;;7.70;3.50;;;39.00;13.50;;;;;;21130106;27;81194;-73
2021/08/12 18:43:57;;;;;;;13.57;3.33;;;37.90;14.00;;;;;;21129609;27;82370;-71
2021/08/12 18:53:59;;;;;;;10.93;3.47;;;37.30;15.20;;;;;;21129840;27;82074;-71
2021/08/12 19:04:01;;;;;;;9.88;3.58;;;36.50;15.60;;;;;;21127809;27;81103;-73
2021/08/12 19:14:03;;;;;;;13.65;4.43;;;36.00;16.30;;;;;;21126446;27;82192;-71
2021/08/12 19:24:05;;;;;;;16.73;5.18;;;35.50;16.90;;;;;;21145166;27;80952;-69
2021/08/12 19:34:06;;;;;;;10.75;3.75;;;35.20;17.40;;;;;;21126049;27;80714;-70
2021/08/12 19:44:08;;;;;;;8.93;4.90;;;34.70;18.20;;;;;;21124853;27;81414;-72
2021/08/12 19:54:12;;;;;;;10.40;4.45;;;34.40;18.60;;;;;;21142685;27;80736;-71
2021/08/12 20:04:14;;;;;;;13.80;4.70;;;34.00;18.70;;;;;;21054746;27;80029;-73
2021/08/12 20:14:16;;;;;;;14.38;4.88;;;33.60;19.00;;;;;;21054095;27;80899;-71
2021/08/12 20:24:18;;;;;;;14.63;5.00;;;33.50;19.30;;;;;;21054952;27;81015;-70
2021/08/12 20:34:21;;;;;;;13.77;4.55;;;33.30;19.80;;;;;;21053389;27;80722;-72
2021/08/12 20:44:23;;;;;;;11.95;5.03;;;33.00;20.80;;;;;;21053037;27;79888;-74
2021/08/12 20:54:25;;;;;;;10.80;5.07;;;32.70;21.80;;;;;;21053453;27;80752;-71
2021/08/12 21:04:27;;;;;;;11.55;5.32;;;32.40;22.40;;;;;;21051187;27;79973;-72
2021/08/12 21:14:29;;;;;;;17.17;6.10;;;32.00;23.00;;;;;;21051707;27;80602;-71
2021/08/12 21:24:31;;;;;;;14.07;8.13;;;31.80;23.60;;;;;;21051026;27;81299;-75
2021/08/12 21:34:33;;;;;;;20.67;7.68;;;31.50;23.80;;;;;;21054472;27;79946;-74
2021/08/12 21:44:35;;;;;;;23.48;7.05;;;31.20;24.30;;;;;;21066079;27;82216;-75
2021/08/12 21:54:37;;;;;;;19.38;7.07;;;31.00;25.10;;;;;;21066984;27;80833;-70
2021/08/12 22:04:40;;;;;;;12.52;5.97;;;30.90;25.10;;;;;;21063314;27;81902;-71
2021/08/12 22:14:42;;;;;;;11.38;5.50;;;30.70;25.10;;;;;;21063239;27;81056;-71
2021/08/12 22:24:44;;;;;;;12.38;5.57;;;30.70;24.70;;;;;;21062956;27;81878;-71
2021/08/12 22:34:46;;;;;;;10.45;5.00;;;30.50;25.10;;;;;;21064020;27;80624;-72
2021/08/12 22:44:48;;;;;;;13.05;5.78;;;30.40;24.90;;;;;;21060424;27;80952;-69
2021/08/12 22:54:50;;;;;;;10.82;5.68;;;30.30;25.10;;;;;;21061541;27;80765;-70
2021/08/12 23:04:52;;;;;;;13.23;6.07;;;30.20;24.80;;;;;;21061532;27;81814;-73
2021/08/12 23:14:55;;;;;;;13.25;5.32;;;30.00;25.10;;;;;;21061469;27;81494;-74
2021/08/12 23:24:56;;;;;;;19.90;6.38;;;29.80;24.80;;;;;;21058274;27;79991;-70
2021/08/12 23:34:58;;;;;;;12.63;4.78;;;29.60;25.20;;;;;;21058551;27;81771;-71
2021/08/12 23:45:00;;;;;;;10.73;5.35;;;29.30;25.50;;;;;;21057431;27;80787;-72
2021/08/12 23:55:02;;;;;;;15.82;7.13;;;29.10;25.20;;;;;;21056872;27;82099;-71
